sensor_id;sensor_type;location;lat;lon;timestamp;temperature;humidity
33988;DHT22;37428;53.580;-1.666;2022-10-31T00:02:07;11.50;88.50
33988;DHT22;37428;53.580;-1.666;2022-10-31T00:05:15;11.40;88.70
33988;DHT22;37428;53.580;-1.666;2022-10-31T00:08:17;11.40;88.80
33988;DHT22;37428;53.580;-1.666;2022-10-31T00:11:23;11.40;88.80
33988;DHT22;37428;53.580;-1.666;2022-10-31T00:14:27;11.40;88.80
33988;DHT22;37428;53.580;-1.666;2022-10-31T00:17:30;11.40;89.10
33988;DHT22;37428;53.580;-1.666;2022-10-31T00:20:36;11.40;89.30
33988;DHT22;37428;53.580;-1.666;2022-10-31T00:23:40;11.40;89.50
33988;DHT22;37428;53.580;-1.666;2022-10-31T00:26:46;11.40;89.60
33988;DHT22;37428;53.580;-1.666;2022-10-31T00:29:50;11.40;89.60
33988;DHT22;37428;53.580;-1.666;2022-10-31T00:32:54;11.50;89.50
33988;DHT22;37428;53.580;-1.666;2022-10-31T00:36:12;11.50;89.50
33988;DHT22;37428;53.580;-1.666;2022-10-31T00:39:31;11.50;89.60
33988;DHT22;37428;53.580;-1.666;2022-10-31T00:43:06;11.50;89.70
33988;DHT22;37428;53.580;-1.666;2022-10-31T00:46:14;11.50;89.70
33988;DHT22;37428;53.580;-1.666;2022-10-31T00:49:31;11.60;90.00
33988;DHT22;37428;53.580;-1.666;2022-10-31T00:52:33;11.60;89.90
33988;DHT22;37428;53.580;-1.666;2022-10-31T00:55:55;11.50;89.90
33988;DHT22;37428;53.580;-1.666;2022-10-31T00:58:59;11.50;90.00
33988;DHT22;37428;53.580;-1.666;2022-10-31T01:02:03;11.60;90.00
33988;DHT22;37428;53.580;-1.666;2022-10-31T01:05:08;11.60;89.70
33988;DHT22;37428;53.580;-1.666;2022-10-31T01:08:11;11.60;89.70
33988;DHT22;37428;53.580;-1.666;2022-10-31T01:11:14;11.60;89.90
33988;DHT22;37428;53.580;-1.666;2022-10-31T01:14:19;11.50;89.80
33988;DHT22;37428;53.580;-1.666;2022-10-31T01:17:25;11.60;89.80
33988;DHT22;37428;53.580;-1.666;2022-10-31T01:20:29;11.50;89.90
33988;DHT22;37428;53.580;-1.666;2022-10-31T01:23:43;11.60;89.80
33988;DHT22;37428;53.580;-1.666;2022-10-31T01:26:51;11.50;89.40
33988;DHT22;37428;53.580;-1.666;2022-10-31T01:30:10;11.50;89.40
33988;DHT22;37428;53.580;-1.666;2022-10-31T01:33:24;11.50;89.30
33988;DHT22;37428;53.580;-1.666;2022-10-31T01:36:39;11.50;89.40
33988;DHT22;37428;53.580;-1.666;2022-10-31T01:40:06;11.50;89.40
33988;DHT22;37428;53.580;-1.666;2022-10-31T01:43:12;11.50;89.60
33988;DHT22;37428;53.580;-1.666;2022-10-31T01:46:48;11.50;89.50
33988;DHT22;37428;53.580;-1.666;2022-10-31T01:49:56;11.50;89.20
33988;DHT22;37428;53.580;-1.666;2022-10-31T01:53:02;11.50;89.40
33988;DHT22;37428;53.580;-1.666;2022-10-31T01:56:09;11.50;89.10
33988;DHT22;37428;53.580;-1.666;2022-10-31T01:59:15;11.50;89.10
33988;DHT22;37428;53.580;-1.666;2022-10-31T02:02:25;11.50;89.30
33988;DHT22;37428;53.580;-1.666;2022-10-31T02:05:47;11.40;89.20
33988;DHT22;37428;53.580;-1.666;2022-10-31T02:09:05;11.40;89.30
33988;DHT22;37428;53.580;-1.666;2022-10-31T02:12:10;11.40;89.30
33988;DHT22;37428;53.580;-1.666;2022-10-31T02:15:26;11.40;89.50
33988;DHT22;37428;53.580;-1.666;2022-10-31T02:18:33;11.30;89.50
33988;DHT22;37428;53.580;-1.666;2022-10-31T02:21:42;11.30;89.70
33988;DHT22;37428;53.580;-1.666;2022-10-31T02:25:01;11.30;89.60
33988;DHT22;37428;53.580;-1.666;2022-10-31T02:31:58;11.30;89.60
33988;DHT22;37428;53.580;-1.666;2022-10-31T02:35:08;11.30;89.70
33988;DHT22;37428;53.580;-1.666;2022-10-31T02:38:50;11.30;89.90
33988;DHT22;37428;53.580;-1.666;2022-10-31T02:42:16;11.30;90.10
33988;DHT22;37428;53.580;-1.666;2022-10-31T02:45:33;11.40;89.90
33988;DHT22;37428;53.580;-1.666;2022-10-31T02:49:02;11.30;90.10
33988;DHT22;37428;53.580;-1.666;2022-10-31T02:52:25;11.30;90.00
33988;DHT22;37428;53.580;-1.666;2022-10-31T02:55:56;11.30;90.10
33988;DHT22;37428;53.580;-1.666;2022-10-31T02:59:01;11.30;90.10
33988;DHT22;37428;53.580;-1.666;2022-10-31T03:02:22;11.30;89.90
33988;DHT22;37428;53.580;-1.666;2022-10-31T03:05:40;11.30;89.60
33988;DHT22;37428;53.580;-1.666;2022-10-31T03:08:50;11.30;89.60
33988;DHT22;37428;53.580;-1.666;2022-10-31T03:11:58;11.30;89.70
33988;DHT22;37428;53.580;-1.666;2022-10-31T03:15:16;11.30;89.70
33988;DHT22;37428;53.580;-1.666;2022-10-31T03:18:25;11.30;89.90
33988;DHT22;37428;53.580;-1.666;2022-10-31T03:21:48;11.30;89.70
33988;DHT22;37428;53.580;-1.666;2022-10-31T03:25:12;11.30;89.60
33988;DHT22;37428;53.580;-1.666;2022-10-31T03:28:33;11.20;89.80
33988;DHT22;37428;53.580;-1.666;2022-10-31T03:31:42;11.30;90.10
33988;DHT22;37428;53.580;-1.666;2022-10-31T03:34:55;11.20;90.00
33988;DHT22;37428;53.580;-1.666;2022-10-31T03:38:08;11.20;90.20
33988;DHT22;37428;53.580;-1.666;2022-10-31T03:41:28;11.10;90.50
33988;DHT22;37428;53.580;-1.666;2022-10-31T03:44:40;11.10;90.70
33988;DHT22;37428;53.580;-1.666;2022-10-31T03:47:59;11.10;90.90
33988;DHT22;37428;53.580;-1.666;2022-10-31T03:51:10;11.10;90.80
33988;DHT22;37428;53.580;-1.666;2022-10-31T03:58:12;11.10;91.00
33988;DHT22;37428;53.580;-1.666;2022-10-31T04:01:42;11.00;90.90
33988;DHT22;37428;53.580;-1.666;2022-10-31T04:05:00;11.00;90.90
33988;DHT22;37428;53.580;-1.666;2022-10-31T04:08:08;10.90;91.10
33988;DHT22;37428;53.580;-1.666;2022-10-31T04:11:20;11.00;91.40
33988;DHT22;37428;53.580;-1.666;2022-10-31T04:14:32;11.00;91.70
33988;DHT22;37428;53.580;-1.666;2022-10-31T04:17:39;11.00;91.90
33988;DHT22;37428;53.580;-1.666;2022-10-31T04:21:03;11.00;92.00
33988;DHT22;37428;53.580;-1.666;2022-10-31T04:24:06;11.00;91.80
33988;DHT22;37428;53.580;-1.666;2022-10-31T04:27:14;11.10;91.70
33988;DHT22;37428;53.580;-1.666;2022-10-31T04:30:22;11.00;91.80
33988;DHT22;37428;53.580;-1.666;2022-10-31T04:33:25;11.00;91.90
33988;DHT22;37428;53.580;-1.666;2022-10-31T04:36:38;11.10;91.70
33988;DHT22;37428;53.580;-1.666;2022-10-31T04:39:41;11.10;91.60
33988;DHT22;37428;53.580;-1.666;2022-10-31T04:42:43;11.10;91.60
33988;DHT22;37428;53.580;-1.666;2022-10-31T04:46:13;11.20;91.60
33988;DHT22;37428;53.580;-1.666;2022-10-31T04:49:17;11.20;91.40
33988;DHT22;37428;53.580;-1.666;2022-10-31T04:52:19;11.20;91.40
33988;DHT22;37428;53.580;-1.666;2022-10-31T04:55:29;11.30;91.30
33988;DHT22;37428;53.580;-1.666;2022-10-31T04:58:33;11.30;91.10
33988;DHT22;37428;53.580;-1.666;2022-10-31T05:01:41;11.40;91.00
33988;DHT22;37428;53.580;-1.666;2022-10-31T05:04:57;11.40;90.90
33988;DHT22;37428;53.580;-1.666;2022-10-31T05:08:15;11.40;90.80
33988;DHT22;37428;53.580;-1.666;2022-10-31T05:11:19;11.40;90.50
33988;DHT22;37428;53.580;-1.666;2022-10-31T05:14:26;11.50;90.40
33988;DHT22;37428;53.580;-1.666;2022-10-31T05:18:04;11.50;90.50
33988;DHT22;37428;53.580;-1.666;2022-10-31T05:21:13;11.60;90.30
33988;DHT22;37428;53.580;-1.666;2022-10-31T05:24:15;11.60;90.20
33988;DHT22;37428;53.580;-1.666;2022-10-31T05:27:53;11.60;90.20
33988;DHT22;37428;53.580;-1.666;2022-10-31T05:30:57;11.50;90.40
33988;DHT22;37428;53.580;-1.666;2022-10-31T05:34:09;11.50;90.80
33988;DHT22;37428;53.580;-1.666;2022-10-31T05:37:12;11.40;91.30
33988;DHT22;37428;53.580;-1.666;2022-10-31T05:40:27;11.40;91.70
33988;DHT22;37428;53.580;-1.666;2022-10-31T05:43:45;11.40;92.30
33988;DHT22;37428;53.580;-1.666;2022-10-31T05:46:56;11.30;92.50
33988;DHT22;37428;53.580;-1.666;2022-10-31T05:50:14;11.40;92.60
33988;DHT22;37428;53.580;-1.666;2022-10-31T05:53:28;11.30;92.50
33988;DHT22;37428;53.580;-1.666;2022-10-31T05:56:30;11.30;93.10
33988;DHT22;37428;53.580;-1.666;2022-10-31T05:59:34;11.30;93.30
33988;DHT22;37428;53.580;-1.666;2022-10-31T06:02:53;11.20;93.30
33988;DHT22;37428;53.580;-1.666;2022-10-31T06:06:07;11.20;93.50
33988;DHT22;37428;53.580;-1.666;2022-10-31T06:09:23;11.30;93.60
33988;DHT22;37428;53.580;-1.666;2022-10-31T06:12:26;11.30;93.50
33988;DHT22;37428;53.580;-1.666;2022-10-31T06:16:06;11.30;93.50
33988;DHT22;37428;53.580;-1.666;2022-10-31T06:19:27;11.20;93.60
33988;DHT22;37428;53.580;-1.666;2022-10-31T06:22:36;11.20;93.90
33988;DHT22;37428;53.580;-1.666;2022-10-31T06:25:43;11.20;93.80
33988;DHT22;37428;53.580;-1.666;2022-10-31T06:28:46;11.20;93.80
33988;DHT22;37428;53.580;-1.666;2022-10-31T06:35:42;11.20;93.70
33988;DHT22;37428;53.580;-1.666;2022-10-31T06:38:56;11.30;93.60
33988;DHT22;37428;53.580;-1.666;2022-10-31T06:42:12;11.50;92.30
33988;DHT22;37428;53.580;-1.666;2022-10-31T06:45:17;11.50;92.10
33988;DHT22;37428;53.580;-1.666;2022-10-31T06:48:33;11.50;92.40
33988;DHT22;37428;53.580;-1.666;2022-10-31T06:51:36;11.50;92.70
33988;DHT22;37428;53.580;-1.666;2022-10-31T06:54:43;11.50;92.70
33988;DHT22;37428;53.580;-1.666;2022-10-31T06:57:50;11.50;92.60
33988;DHT22;37428;53.580;-1.666;2022-10-31T07:00:59;11.40;92.60
33988;DHT22;37428;53.580;-1.666;2022-10-31T07:04:12;11.40;92.80
33988;DHT22;37428;53.580;-1.666;2022-10-31T07:07:15;11.40;92.90
33988;DHT22;37428;53.580;-1.666;2022-10-31T07:10:29;11.40;93.10
33988;DHT22;37428;53.580;-1.666;2022-10-31T07:13:31;11.40;93.00
33988;DHT22;37428;53.580;-1.666;2022-10-31T07:16:37;11.40;93.10
33988;DHT22;37428;53.580;-1.666;2022-10-31T07:19:47;11.40;93.30
33988;DHT22;37428;53.580;-1.666;2022-10-31T07:22:49;11.40;93.70
33988;DHT22;37428;53.580;-1.666;2022-10-31T07:26:10;11.40;93.70
33988;DHT22;37428;53.580;-1.666;2022-10-31T07:32:50;11.40;93.90
33988;DHT22;37428;53.580;-1.666;2022-10-31T07:36:04;11.40;93.80
33988;DHT22;37428;53.580;-1.666;2022-10-31T07:39:06;11.50;93.60
33988;DHT22;37428;53.580;-1.666;2022-10-31T07:42:14;11.50;93.50
33988;DHT22;37428;53.580;-1.666;2022-10-31T07:45:26;11.60;93.30
33988;DHT22;37428;53.580;-1.666;2022-10-31T07:48:30;11.70;92.70
33988;DHT22;37428;53.580;-1.666;2022-10-31T07:51:47;11.70;92.30
33988;DHT22;37428;53.580;-1.666;2022-10-31T07:55:24;11.70;92.10
33988;DHT22;37428;53.580;-1.666;2022-10-31T07:58:37;11.80;91.60
33988;DHT22;37428;53.580;-1.666;2022-10-31T08:01:40;11.80;91.30
33988;DHT22;37428;53.580;-1.666;2022-10-31T08:04:43;11.90;91.10
33988;DHT22;37428;53.580;-1.666;2022-10-31T08:07:52;11.90;91.00
33988;DHT22;37428;53.580;-1.666;2022-10-31T08:10:58;11.90;91.00
33988;DHT22;37428;53.580;-1.666;2022-10-31T08:14:01;11.90;90.90
33988;DHT22;37428;53.580;-1.666;2022-10-31T08:17:05;11.90;91.10
33988;DHT22;37428;53.580;-1.666;2022-10-31T08:20:27;11.90;91.10
33988;DHT22;37428;53.580;-1.666;2022-10-31T08:23:33;11.90;91.10
33988;DHT22;37428;53.580;-1.666;2022-10-31T08:26:39;11.90;91.30
33988;DHT22;37428;53.580;-1.666;2022-10-31T08:29:56;11.90;91.30
33988;DHT22;37428;53.580;-1.666;2022-10-31T08:33:09;12.00;90.90
33988;DHT22;37428;53.580;-1.666;2022-10-31T08:36:12;12.00;91.00
33988;DHT22;37428;53.580;-1.666;2022-10-31T08:39:20;12.00;90.80
33988;DHT22;37428;53.580;-1.666;2022-10-31T08:42:24;12.00;90.70
33988;DHT22;37428;53.580;-1.666;2022-10-31T08:45:32;12.00;90.50
33988;DHT22;37428;53.580;-1.666;2022-10-31T08:48:35;12.00;90.50
33988;DHT22;37428;53.580;-1.666;2022-10-31T08:51:39;12.10;90.30
33988;DHT22;37428;53.580;-1.666;2022-10-31T08:54:55;12.10;90.50
33988;DHT22;37428;53.580;-1.666;2022-10-31T08:58:01;12.00;90.60
33988;DHT22;37428;53.580;-1.666;2022-10-31T09:01:25;12.10;90.50
33988;DHT22;37428;53.580;-1.666;2022-10-31T09:04:30;12.10;90.00
33988;DHT22;37428;53.580;-1.666;2022-10-31T09:07:32;12.20;89.20
33988;DHT22;37428;53.580;-1.666;2022-10-31T09:10:37;12.40;88.60
33988;DHT22;37428;53.580;-1.666;2022-10-31T09:13:53;12.50;88.20
33988;DHT22;37428;53.580;-1.666;2022-10-31T09:17:19;12.70;87.30
33988;DHT22;37428;53.580;-1.666;2022-10-31T09:20:30;12.90;86.20
33988;DHT22;37428;53.580;-1.666;2022-10-31T09:24:00;13.10;85.50
33988;DHT22;37428;53.580;-1.666;2022-10-31T09:27:02;13.10;85.20
33988;DHT22;37428;53.580;-1.666;2022-10-31T09:30:15;13.20;85.30
33988;DHT22;37428;53.580;-1.666;2022-10-31T09:33:34;13.20;85.30
33988;DHT22;37428;53.580;-1.666;2022-10-31T09:36:46;13.30;84.90
33988;DHT22;37428;53.580;-1.666;2022-10-31T09:40:00;13.40;84.20
33988;DHT22;37428;53.580;-1.666;2022-10-31T09:43:14;13.40;84.10
33988;DHT22;37428;53.580;-1.666;2022-10-31T09:46:33;13.50;83.50
33988;DHT22;37428;53.580;-1.666;2022-10-31T09:49:55;13.50;83.30
33988;DHT22;37428;53.580;-1.666;2022-10-31T09:53:10;13.50;83.30
33988;DHT22;37428;53.580;-1.666;2022-10-31T09:56:31;13.50;83.40
33988;DHT22;37428;53.580;-1.666;2022-10-31T09:59:47;13.60;83.80
33988;DHT22;37428;53.580;-1.666;2022-10-31T10:02:56;13.70;83.60
33988;DHT22;37428;53.580;-1.666;2022-10-31T10:06:21;13.70;83.70
33988;DHT22;37428;53.580;-1.666;2022-10-31T10:09:26;13.70;83.00
33988;DHT22;37428;53.580;-1.666;2022-10-31T10:12:56;13.80;83.60
33988;DHT22;37428;53.580;-1.666;2022-10-31T10:16:40;13.70;82.90
33988;DHT22;37428;53.580;-1.666;2022-10-31T10:21:42;13.80;83.10
33988;DHT22;37428;53.580;-1.666;2022-10-31T10:23:57;13.90;82.30
33988;DHT22;37428;53.580;-1.666;2022-10-31T10:27:27;14.10;81.30
33988;DHT22;37428;53.580;-1.666;2022-10-31T10:30:39;14.20;80.10
33988;DHT22;37428;53.580;-1.666;2022-10-31T10:33:51;14.30;80.00
33988;DHT22;37428;53.580;-1.666;2022-10-31T10:37:32;14.30;79.80
33988;DHT22;37428;53.580;-1.666;2022-10-31T10:40:52;14.20;79.60
33988;DHT22;37428;53.580;-1.666;2022-10-31T10:44:12;14.20;80.30
33988;DHT22;37428;53.580;-1.666;2022-10-31T10:47:22;14.30;79.00
33988;DHT22;37428;53.580;-1.666;2022-10-31T10:50:46;14.30;79.40
33988;DHT22;37428;53.580;-1.666;2022-10-31T10:54:16;14.40;78.60
33988;DHT22;37428;53.580;-1.666;2022-10-31T11:00:50;14.80;77.30
33988;DHT22;37428;53.580;-1.666;2022-10-31T11:03:56;14.90;77.40
33988;DHT22;37428;53.580;-1.666;2022-10-31T11:07:15;14.90;77.00
33988;DHT22;37428;53.580;-1.666;2022-10-31T11:10:38;14.80;76.70
33988;DHT22;37428;53.580;-1.666;2022-10-31T11:13:50;14.80;77.20
33988;DHT22;37428;53.580;-1.666;2022-10-31T11:17:14;14.80;76.50
33988;DHT22;37428;53.580;-1.666;2022-10-31T11:20:34;14.90;76.90
33988;DHT22;37428;53.580;-1.666;2022-10-31T11:23:36;14.80;76.30
33988;DHT22;37428;53.580;-1.666;2022-10-31T11:26:51;14.80;76.00
33988;DHT22;37428;53.580;-1.666;2022-10-31T11:30:09;15.00;75.80
33988;DHT22;37428;53.580;-1.666;2022-10-31T11:33:17;15.30;75.20
33988;DHT22;37428;53.580;-1.666;2022-10-31T11:36:24;15.60;73.40
33988;DHT22;37428;53.580;-1.666;2022-10-31T11:39:27;15.80;72.60
33988;DHT22;37428;53.580;-1.666;2022-10-31T11:42:35;15.90;71.20
33988;DHT22;37428;53.580;-1.666;2022-10-31T11:45:43;16.10;71.30
33988;DHT22;37428;53.580;-1.666;2022-10-31T11:48:47;16.10;71.50
33988;DHT22;37428;53.580;-1.666;2022-10-31T11:51:54;16.00;70.80
33988;DHT22;37428;53.580;-1.666;2022-10-31T11:55:13;16.00;71.10
33988;DHT22;37428;53.580;-1.666;2022-10-31T11:58:26;16.20;71.00
33988;DHT22;37428;53.580;-1.666;2022-10-31T12:01:32;16.10;69.40
33988;DHT22;37428;53.580;-1.666;2022-10-31T12:04:43;16.20;70.00
33988;DHT22;37428;53.580;-1.666;2022-10-31T12:07:49;16.20;69.90
33988;DHT22;37428;53.580;-1.666;2022-10-31T12:11:00;16.20;69.20
33988;DHT22;37428;53.580;-1.666;2022-10-31T12:14:12;16.00;70.70
33988;DHT22;37428;53.580;-1.666;2022-10-31T12:17:30;15.70;71.40
33988;DHT22;37428;53.580;-1.666;2022-10-31T12:20:44;15.50;72.80
33988;DHT22;37428;53.580;-1.666;2022-10-31T12:23:59;15.30;73.40
33988;DHT22;37428;53.580;-1.666;2022-10-31T12:27:14;15.20;74.10
33988;DHT22;37428;53.580;-1.666;2022-10-31T12:30:27;15.10;74.40
33988;DHT22;37428;53.580;-1.666;2022-10-31T12:33:45;14.90;74.90
33988;DHT22;37428;53.580;-1.666;2022-10-31T12:36:58;14.80;75.30
33988;DHT22;37428;53.580;-1.666;2022-10-31T12:40:24;14.70;75.90
33988;DHT22;37428;53.580;-1.666;2022-10-31T12:43:36;14.60;76.40
33988;DHT22;37428;53.580;-1.666;2022-10-31T12:46:55;14.50;76.70
33988;DHT22;37428;53.580;-1.666;2022-10-31T12:50:22;14.50;77.20
33988;DHT22;37428;53.580;-1.666;2022-10-31T12:53:35;14.40;77.50
33988;DHT22;37428;53.580;-1.666;2022-10-31T12:56:50;14.40;77.90
33988;DHT22;37428;53.580;-1.666;2022-10-31T13:00:10;14.40;78.40
33988;DHT22;37428;53.580;-1.666;2022-10-31T13:03:25;14.50;77.40
33988;DHT22;37428;53.580;-1.666;2022-10-31T13:06:35;14.50;77.80
33988;DHT22;37428;53.580;-1.666;2022-10-31T13:09:45;14.50;78.50
33988;DHT22;37428;53.580;-1.666;2022-10-31T13:12:54;14.40;78.40
33988;DHT22;37428;53.580;-1.666;2022-10-31T13:16:00;14.30;78.10
33988;DHT22;37428;53.580;-1.666;2022-10-31T13:19:16;14.30;78.10
33988;DHT22;37428;53.580;-1.666;2022-10-31T13:22:29;14.30;78.20
33988;DHT22;37428;53.580;-1.666;2022-10-31T13:25:44;14.20;78.40
33988;DHT22;37428;53.580;-1.666;2022-10-31T13:28:57;14.20;78.80
33988;DHT22;37428;53.580;-1.666;2022-10-31T13:32:09;14.20;79.20
33988;DHT22;37428;53.580;-1.666;2022-10-31T13:35:19;14.20;79.40
33988;DHT22;37428;53.580;-1.666;2022-10-31T13:38:34;14.30;79.90
33988;DHT22;37428;53.580;-1.666;2022-10-31T13:41:44;14.30;80.20
33988;DHT22;37428;53.580;-1.666;2022-10-31T13:44:52;14.50;79.70
33988;DHT22;37428;53.580;-1.666;2022-10-31T13:48:36;14.70;79.10
33988;DHT22;37428;53.580;-1.666;2022-10-31T13:51:41;14.80;78.30
33988;DHT22;37428;53.580;-1.666;2022-10-31T13:54:49;14.80;78.10
33988;DHT22;37428;53.580;-1.666;2022-10-31T13:57:59;14.70;77.80
33988;DHT22;37428;53.580;-1.666;2022-10-31T14:01:13;14.80;78.10
33988;DHT22;37428;53.580;-1.666;2022-10-31T14:04:24;14.80;77.40
33988;DHT22;37428;53.580;-1.666;2022-10-31T14:07:30;14.80;77.00
33988;DHT22;37428;53.580;-1.666;2022-10-31T14:10:38;14.80;77.40
33988;DHT22;37428;53.580;-1.666;2022-10-31T14:13:48;14.70;76.90
33988;DHT22;37428;53.580;-1.666;2022-10-31T14:16:55;14.60;77.30
33988;DHT22;37428;53.580;-1.666;2022-10-31T14:20:33;14.60;77.30
33988;DHT22;37428;53.580;-1.666;2022-10-31T14:23:38;14.50;78.10
33988;DHT22;37428;53.580;-1.666;2022-10-31T14:27:04;14.50;78.00
33988;DHT22;37428;53.580;-1.666;2022-10-31T14:30:17;14.50;78.70
33988;DHT22;37428;53.580;-1.666;2022-10-31T14:33:26;14.40;78.50
33988;DHT22;37428;53.580;-1.666;2022-10-31T14:36:38;14.50;78.40
33988;DHT22;37428;53.580;-1.666;2022-10-31T14:39:58;14.50;78.60
33988;DHT22;37428;53.580;-1.666;2022-10-31T14:43:32;14.40;77.90
33988;DHT22;37428;53.580;-1.666;2022-10-31T14:47:00;14.30;78.60
33988;DHT22;37428;53.580;-1.666;2022-10-31T14:50:23;14.20;79.00
33988;DHT22;37428;53.580;-1.666;2022-10-31T14:53:30;14.20;79.60
33988;DHT22;37428;53.580;-1.666;2022-10-31T14:56:52;14.20;79.80
33988;DHT22;37428;53.580;-1.666;2022-10-31T15:00:07;14.10;80.10
33988;DHT22;37428;53.580;-1.666;2022-10-31T15:03:24;14.10;80.20
33988;DHT22;37428;53.580;-1.666;2022-10-31T15:06:31;14.00;80.70
33988;DHT22;37428;53.580;-1.666;2022-10-31T15:10:02;14.00;81.00
33988;DHT22;37428;53.580;-1.666;2022-10-31T15:13:46;13.90;81.30
33988;DHT22;37428;53.580;-1.666;2022-10-31T15:16:57;13.90;81.10
33988;DHT22;37428;53.580;-1.666;2022-10-31T15:20:00;13.90;81.50
33988;DHT22;37428;53.580;-1.666;2022-10-31T15:23:20;13.80;81.70
33988;DHT22;37428;53.580;-1.666;2022-10-31T15:26:29;13.80;81.90
33988;DHT22;37428;53.580;-1.666;2022-10-31T15:29:32;13.80;82.00
33988;DHT22;37428;53.580;-1.666;2022-10-31T15:32:36;13.70;82.30
33988;DHT22;37428;53.580;-1.666;2022-10-31T15:35:40;13.80;82.60
33988;DHT22;37428;53.580;-1.666;2022-10-31T15:38:42;13.80;83.10
33988;DHT22;37428;53.580;-1.666;2022-10-31T15:42:02;13.70;83.00
33988;DHT22;37428;53.580;-1.666;2022-10-31T15:45:26;13.80;83.50
33988;DHT22;37428;53.580;-1.666;2022-10-31T15:48:32;13.70;83.50
33988;DHT22;37428;53.580;-1.666;2022-10-31T15:51:43;13.80;84.00
33988;DHT22;37428;53.580;-1.666;2022-10-31T15:54:51;13.70;84.00
33988;DHT22;37428;53.580;-1.666;2022-10-31T15:57:57;13.60;84.30
33988;DHT22;37428;53.580;-1.666;2022-10-31T16:01:20;13.60;84.40
33988;DHT22;37428;53.580;-1.666;2022-10-31T16:04:32;13.60;84.60
33988;DHT22;37428;53.580;-1.666;2022-10-31T16:07:34;13.60;85.00
33988;DHT22;37428;53.580;-1.666;2022-10-31T16:10:55;13.50;85.20
33988;DHT22;37428;53.580;-1.666;2022-10-31T16:14:01;13.40;85.70
33988;DHT22;37428;53.580;-1.666;2022-10-31T16:17:13;13.30;86.10
33988;DHT22;37428;53.580;-1.666;2022-10-31T16:20:20;13.30;86.60
33988;DHT22;37428;53.580;-1.666;2022-10-31T16:23:32;13.20;86.90
33988;DHT22;37428;53.580;-1.666;2022-10-31T16:26:36;13.20;87.60
33988;DHT22;37428;53.580;-1.666;2022-10-31T16:29:43;13.10;88.20
33988;DHT22;37428;53.580;-1.666;2022-10-31T16:32:53;13.00;88.90
33988;DHT22;37428;53.580;-1.666;2022-10-31T16:35:58;13.00;89.40
33988;DHT22;37428;53.580;-1.666;2022-10-31T16:39:00;13.00;89.80
33988;DHT22;37428;53.580;-1.666;2022-10-31T16:42:04;13.00;90.20
33988;DHT22;37428;53.580;-1.666;2022-10-31T16:45:17;13.00;90.40
33988;DHT22;37428;53.580;-1.666;2022-10-31T16:48:21;13.00;90.80
33988;DHT22;37428;53.580;-1.666;2022-10-31T16:51:31;13.00;91.00
33988;DHT22;37428;53.580;-1.666;2022-10-31T16:54:35;12.90;91.10
33988;DHT22;37428;53.580;-1.666;2022-10-31T16:57:38;12.90;91.40
33988;DHT22;37428;53.580;-1.666;2022-10-31T17:00:52;12.90;91.50
33988;DHT22;37428;53.580;-1.666;2022-10-31T17:03:59;12.80;91.80
33988;DHT22;37428;53.580;-1.666;2022-10-31T17:07:04;12.80;91.90
33988;DHT22;37428;53.580;-1.666;2022-10-31T17:10:07;12.80;92.00
33988;DHT22;37428;53.580;-1.666;2022-10-31T17:13:27;12.80;92.20
33988;DHT22;37428;53.580;-1.666;2022-10-31T17:16:44;12.80;92.30
33988;DHT22;37428;53.580;-1.666;2022-10-31T17:19:46;12.70;92.50
33988;DHT22;37428;53.580;-1.666;2022-10-31T17:22:50;12.70;92.70
33988;DHT22;37428;53.580;-1.666;2022-10-31T17:25:52;12.70;92.70
33988;DHT22;37428;53.580;-1.666;2022-10-31T17:28:56;12.70;92.90
33988;DHT22;37428;53.580;-1.666;2022-10-31T17:31:59;12.70;93.00
33988;DHT22;37428;53.580;-1.666;2022-10-31T17:35:04;12.70;93.10
33988;DHT22;37428;53.580;-1.666;2022-10-31T17:38:09;12.70;93.00
33988;DHT22;37428;53.580;-1.666;2022-10-31T17:41:12;12.70;93.10
33988;DHT22;37428;53.580;-1.666;2022-10-31T17:44:16;12.60;93.20
33988;DHT22;37428;53.580;-1.666;2022-10-31T17:47:20;12.60;93.20
33988;DHT22;37428;53.580;-1.666;2022-10-31T17:50:25;12.60;93.40
33988;DHT22;37428;53.580;-1.666;2022-10-31T17:53:29;12.50;93.70
33988;DHT22;37428;53.580;-1.666;2022-10-31T17:56:32;12.60;93.80
33988;DHT22;37428;53.580;-1.666;2022-10-31T17:59:38;12.60;93.70
33988;DHT22;37428;53.580;-1.666;2022-10-31T18:02:42;12.50;93.80
33988;DHT22;37428;53.580;-1.666;2022-10-31T18:05:51;12.50;93.80
33988;DHT22;37428;53.580;-1.666;2022-10-31T18:08:55;12.50;93.80
33988;DHT22;37428;53.580;-1.666;2022-10-31T18:12:01;12.50;93.80
33988;DHT22;37428;53.580;-1.666;2022-10-31T18:15:04;12.50;93.50
33988;DHT22;37428;53.580;-1.666;2022-10-31T18:18:11;12.60;93.60
33988;DHT22;37428;53.580;-1.666;2022-10-31T18:21:13;12.60;93.30
33988;DHT22;37428;53.580;-1.666;2022-10-31T18:24:19;12.70;93.00
33988;DHT22;37428;53.580;-1.666;2022-10-31T18:27:21;12.70;92.80
33988;DHT22;37428;53.580;-1.666;2022-10-31T18:30:26;12.70;92.60
33988;DHT22;37428;53.580;-1.666;2022-10-31T18:33:42;12.80;92.50
33988;DHT22;37428;53.580;-1.666;2022-10-31T18:36:44;12.80;92.30
33988;DHT22;37428;53.580;-1.666;2022-10-31T18:39:48;12.80;92.60
33988;DHT22;37428;53.580;-1.666;2022-10-31T18:42:56;12.70;92.90
33988;DHT22;37428;53.580;-1.666;2022-10-31T18:46:07;12.60;93.50
33988;DHT22;37428;53.580;-1.666;2022-10-31T18:49:10;12.60;93.80
33988;DHT22;37428;53.580;-1.666;2022-10-31T18:52:15;12.70;93.90
33988;DHT22;37428;53.580;-1.666;2022-10-31T18:55:20;12.60;93.90
33988;DHT22;37428;53.580;-1.666;2022-10-31T18:58:24;12.50;94.60
33988;DHT22;37428;53.580;-1.666;2022-10-31T19:01:26;12.40;95.20
33988;DHT22;37428;53.580;-1.666;2022-10-31T19:04:43;12.40;95.90
33988;DHT22;37428;53.580;-1.666;2022-10-31T19:07:46;12.40;96.20
33988;DHT22;37428;53.580;-1.666;2022-10-31T19:10:50;12.40;96.50
33988;DHT22;37428;53.580;-1.666;2022-10-31T19:13:55;12.40;96.40
33988;DHT22;37428;53.580;-1.666;2022-10-31T19:16:57;12.40;96.30
33988;DHT22;37428;53.580;-1.666;2022-10-31T19:20:04;12.40;96.20
33988;DHT22;37428;53.580;-1.666;2022-10-31T19:23:09;12.40;96.90
33988;DHT22;37428;53.580;-1.666;2022-10-31T19:26:13;12.40;96.90
33988;DHT22;37428;53.580;-1.666;2022-10-31T19:29:21;12.40;96.50
33988;DHT22;37428;53.580;-1.666;2022-10-31T19:32:23;12.30;96.80
33988;DHT22;37428;53.580;-1.666;2022-10-31T19:35:27;12.20;97.30
33988;DHT22;37428;53.580;-1.666;2022-10-31T19:38:30;12.20;97.90
33988;DHT22;37428;53.580;-1.666;2022-10-31T19:41:36;12.20;98.00
33988;DHT22;37428;53.580;-1.666;2022-10-31T19:44:39;12.10;98.50
33988;DHT22;37428;53.580;-1.666;2022-10-31T19:47:41;12.00;99.30
33988;DHT22;37428;53.580;-1.666;2022-10-31T19:50:44;11.90;99.90
33988;DHT22;37428;53.580;-1.666;2022-10-31T19:53:46;11.80;99.90
33988;DHT22;37428;53.580;-1.666;2022-10-31T19:56:53;11.80;99.90
33988;DHT22;37428;53.580;-1.666;2022-10-31T19:59:55;11.80;99.90
33988;DHT22;37428;53.580;-1.666;2022-10-31T20:02:58;11.80;99.90
33988;DHT22;37428;53.580;-1.666;2022-10-31T20:06:01;11.70;99.90
33988;DHT22;37428;53.580;-1.666;2022-10-31T20:09:06;11.70;99.90